createdAt,value
2019-03-23T00:00:05.490Z,25
2019-03-23T00:01:02.402Z,24
2019-03-23T00:02:02.583Z,24
2019-03-23T00:03:01.782Z,27
2019-03-23T00:04:02.038Z,26
2019-03-23T00:05:02.288Z,27
2019-03-23T00:06:02.494Z,23
2019-03-23T00:07:01.787Z,24
2019-03-23T00:08:02.054Z,27
2019-03-23T00:09:02.274Z,23
2019-03-23T00:10:06.020Z,25
2019-03-23T00:11:01.702Z,28
2019-03-23T00:12:01.899Z,26
2019-03-23T00:13:02.116Z,24
2019-03-23T00:14:02.386Z,26
2019-03-23T00:15:02.651Z,27
2019-03-23T00:16:01.763Z,29
2019-03-23T00:17:02.014Z,25
2019-03-23T00:18:02.148Z,27
2019-03-23T00:19:02.380Z,29
2019-03-23T00:20:01.667Z,22
2019-03-23T00:21:02.606Z,27
2019-03-23T00:22:01.753Z,23
2019-03-23T00:23:01.949Z,25
2019-03-23T00:24:02.127Z,23
2019-03-23T00:25:02.326Z,20
2019-03-23T00:26:02.523Z,22
2019-03-23T00:27:01.779Z,25
2019-03-23T00:28:02.021Z,24
2019-03-23T00:29:02.178Z,24
2019-03-23T00:30:02.363Z,23
2019-03-23T00:31:02.618Z,26
2019-03-23T00:32:01.881Z,26
2019-03-23T00:33:02.164Z,25
2019-03-23T00:34:02.311Z,25
2019-03-23T00:35:02.564Z,20
2019-03-23T00:36:01.746Z,24
2019-03-23T00:37:02.019Z,22
2019-03-23T00:38:02.239Z,27
2019-03-23T00:39:02.459Z,25
2019-03-23T00:40:01.627Z,23
2019-03-23T00:41:01.839Z,27
2019-03-23T00:42:02.089Z,24
2019-03-23T00:43:02.200Z,24
2019-03-23T00:44:02.444Z,20
2019-03-23T00:45:01.747Z,26
2019-03-23T00:46:01.911Z,24
2019-03-23T00:47:02.140Z,29
2019-03-23T00:48:02.312Z,26
2019-03-23T00:49:02.512Z,27
2019-03-23T00:50:01.877Z,19
2019-03-23T00:51:01.995Z,22
2019-03-23T00:52:02.267Z,26
2019-03-23T00:53:02.415Z,24
2019-03-23T00:54:01.677Z,25
2019-03-23T00:55:01.954Z,29
2019-03-23T00:56:02.177Z,26
2019-03-23T00:57:02.407Z,26
2019-03-23T00:58:01.653Z,22
2019-03-23T00:59:01.915Z,25
2019-03-23T01:00:04.303Z,26
2019-03-23T01:01:02.104Z,25
2019-03-23T01:02:02.329Z,22
2019-03-23T01:03:02.797Z,25
2019-03-23T01:04:01.736Z,26
2019-03-23T01:05:02.068Z,23
2019-03-23T01:06:02.301Z,22
2019-03-23T01:07:02.427Z,24
2019-03-23T01:08:01.733Z,23
2019-03-23T01:09:01.974Z,27
2019-03-23T01:10:02.129Z,24
2019-03-23T01:11:02.366Z,21
2019-03-23T01:12:02.659Z,23
2019-03-23T01:13:01.830Z,20
2019-03-23T01:14:02.017Z,23
2019-03-23T01:15:02.311Z,24
2019-03-23T01:16:02.504Z,25
2019-03-23T01:17:01.755Z,22
2019-03-23T01:18:01.944Z,23
2019-03-23T01:19:02.174Z,23
2019-03-23T01:20:02.369Z,23
2019-03-23T01:21:02.602Z,25
2019-03-23T01:22:01.904Z,22
2019-03-23T01:23:02.153Z,21
2019-03-23T01:24:02.273Z,23
2019-03-23T01:25:02.544Z,21
2019-03-23T01:26:01.863Z,27
2019-03-23T01:27:02.047Z,24
2019-03-23T01:28:02.197Z,20
2019-03-23T01:29:02.462Z,20
2019-03-23T01:30:01.840Z,21
2019-03-23T01:31:02.095Z,23
2019-03-23T01:32:02.354Z,24
2019-03-23T01:33:02.500Z,23
2019-03-23T01:34:01.752Z,21
2019-03-23T01:35:01.975Z,20
2019-03-23T01:36:02.557Z,21
2019-03-23T01:37:03.614Z,20
2019-03-23T01:38:01.980Z,23
2019-03-23T01:39:02.128Z,22
2019-03-23T01:40:02.416Z,20
2019-03-23T01:41:02.644Z,22
2019-03-23T01:42:01.824Z,20
2019-03-23T01:43:02.051Z,23
2019-03-23T01:44:02.430Z,20
2019-03-23T01:45:02.594Z,21
2019-03-23T01:46:01.785Z,22
2019-03-23T01:47:02.067Z,23
2019-03-23T01:48:02.201Z,25
2019-03-23T01:49:02.455Z,25
2019-03-23T01:50:01.725Z,22
2019-03-23T01:51:01.955Z,22
2019-03-23T01:52:02.165Z,21
2019-03-23T01:53:02.343Z,25
2019-03-23T01:54:02.554Z,20
2019-03-23T01:55:01.878Z,24
2019-03-23T01:56:02.125Z,23
2019-03-23T01:57:02.354Z,19
2019-03-23T01:58:02.551Z,23
2019-03-23T01:59:02.434Z,23
2019-03-23T02:00:04.144Z,24
2019-03-23T02:01:02.053Z,22
2019-03-23T02:02:02.243Z,19
2019-03-23T02:03:02.480Z,19
2019-03-23T02:04:01.678Z,20
2019-03-23T02:05:02.000Z,20
2019-03-23T02:06:02.205Z,18
2019-03-23T02:07:13.152Z,21
2019-03-23T02:08:02.593Z,23
2019-03-23T02:09:02.052Z,19
2019-03-23T02:10:02.080Z,21
2019-03-23T02:11:02.321Z,19
2019-03-23T02:12:02.551Z,23
2019-03-23T02:13:01.795Z,20
2019-03-23T02:14:01.976Z,18
2019-03-23T02:15:02.332Z,21
2019-03-23T02:16:02.429Z,23
2019-03-23T02:17:01.634Z,21
2019-03-23T02:18:01.973Z,22
2019-03-23T02:19:02.020Z,19
2019-03-23T02:20:02.243Z,20
2019-03-23T02:21:02.470Z,20
2019-03-23T02:22:01.698Z,24
2019-03-23T02:23:01.921Z,22
2019-03-23T02:24:02.299Z,23
2019-03-23T02:25:02.382Z,21
2019-03-23T02:26:01.631Z,23
2019-03-23T02:27:01.847Z,21
2019-03-23T02:28:02.590Z,21
2019-03-23T02:29:01.855Z,23
2019-03-23T02:30:02.050Z,23
2019-03-23T02:31:02.280Z,18
2019-03-23T02:32:02.666Z,21
2019-03-23T02:33:01.743Z,23
2019-03-23T02:34:01.949Z,24
2019-03-23T02:35:02.131Z,22
2019-03-23T02:36:02.394Z,21
2019-03-23T02:37:02.631Z,21
2019-03-23T02:38:01.736Z,19
2019-03-23T02:39:01.924Z,19
2019-03-23T02:40:02.223Z,20
2019-03-23T02:41:02.453Z,21
2019-03-23T02:42:02.735Z,22
2019-03-23T02:43:01.889Z,21
2019-03-23T02:44:02.158Z,19
2019-03-23T02:45:02.386Z,21
2019-03-23T02:46:02.226Z,22
2019-03-23T02:47:02.161Z,19
2019-03-23T02:48:02.373Z,19
2019-03-23T02:49:02.572Z,17
2019-03-23T02:50:01.865Z,20
2019-03-23T02:51:02.082Z,21
2019-03-23T02:52:01.919Z,18
2019-03-23T02:53:02.070Z,21
2019-03-23T02:54:02.337Z,23
2019-03-23T02:55:02.657Z,22
2019-03-23T02:56:01.788Z,20
2019-03-23T02:57:02.061Z,20
2019-03-23T02:58:02.188Z,18
2019-03-23T02:59:02.372Z,21
2019-03-23T03:00:04.235Z,23
2019-03-23T03:01:01.977Z,22
2019-03-23T03:02:02.139Z,20
2019-03-23T03:03:02.373Z,21
2019-03-23T03:04:02.643Z,18
2019-03-23T03:05:02.009Z,23
2019-03-23T03:06:02.131Z,17
2019-03-23T03:07:02.459Z,16
2019-03-23T03:08:02.579Z,20
2019-03-23T03:09:01.894Z,18
2019-03-23T03:10:02.087Z,19
2019-03-23T03:11:02.332Z,24
2019-03-23T03:12:02.538Z,17
2019-03-23T03:13:01.791Z,20
2019-03-23T03:14:02.023Z,21
2019-03-23T03:15:02.350Z,21
2019-03-23T03:16:02.474Z,20
2019-03-23T03:17:01.755Z,21
2019-03-23T03:18:01.962Z,18
2019-03-23T03:19:02.247Z,20
2019-03-23T03:20:02.579Z,17
2019-03-23T03:21:01.947Z,18
2019-03-23T03:22:02.018Z,16
2019-03-23T03:23:02.221Z,23
2019-03-23T03:24:02.416Z,18
2019-03-23T03:25:01.703Z,21
2019-03-23T03:26:01.940Z,21
2019-03-23T03:27:02.077Z,17
2019-03-23T03:28:02.366Z,18
2019-03-23T03:29:02.612Z,18
2019-03-23T03:30:01.899Z,20
2019-03-23T03:31:02.078Z,16
2019-03-23T03:32:02.263Z,20
2019-03-23T03:33:02.473Z,23
2019-03-23T03:34:01.926Z,20
2019-03-23T03:35:02.069Z,19
2019-03-23T03:36:02.264Z,17
2019-03-23T03:37:02.479Z,18
2019-03-23T03:38:01.683Z,22
2019-03-23T03:39:02.594Z,17
2019-03-23T03:40:01.791Z,19
2019-03-23T03:41:02.004Z,18
2019-03-23T03:42:02.351Z,19
2019-03-23T03:43:02.506Z,16
2019-03-23T03:44:01.638Z,17
2019-03-23T03:45:01.841Z,16
2019-03-23T03:46:02.217Z,20
2019-03-23T03:47:02.272Z,18
2019-03-23T03:48:02.487Z,12
2019-03-23T03:49:13.226Z,18
2019-03-23T03:50:01.909Z,20
2019-03-23T03:51:02.158Z,19
2019-03-23T03:52:02.434Z,20
2019-03-23T03:53:02.689Z,20
2019-03-23T03:54:01.836Z,20
2019-03-23T03:55:02.114Z,14
2019-03-23T03:56:02.323Z,18
2019-03-23T03:57:02.589Z,23
2019-03-23T03:58:01.876Z,17
2019-03-23T03:59:02.145Z,19
2019-03-23T04:00:02.430Z,19
2019-03-23T04:01:02.551Z,19
2019-03-23T04:02:01.740Z,17
2019-03-23T04:03:01.967Z,20
2019-03-23T04:04:02.140Z,23
2019-03-23T04:05:02.452Z,18
2019-03-23T04:06:02.597Z,18
2019-03-23T04:07:01.896Z,18
2019-03-23T04:08:12.332Z,19
2019-03-23T04:09:02.270Z,16
2019-03-23T04:10:02.582Z,16
2019-03-23T04:11:01.769Z,17
2019-03-23T04:12:01.998Z,13
2019-03-23T04:13:02.172Z,18
2019-03-23T04:14:02.362Z,18
2019-03-23T04:15:02.649Z,20
2019-03-23T04:16:01.804Z,19
2019-03-23T04:17:02.068Z,20
2019-03-23T04:18:02.294Z,17
2019-03-23T04:19:02.529Z,20
2019-03-23T04:20:01.790Z,21
2019-03-23T04:21:01.958Z,16
2019-03-23T04:22:02.178Z,18
2019-03-23T04:23:02.491Z,19
2019-03-23T04:24:02.599Z,17
2019-03-23T04:25:02.024Z,18
2019-03-23T04:26:02.080Z,19
2019-03-23T04:27:02.254Z,16
2019-03-23T04:28:02.599Z,17
2019-03-23T04:29:01.747Z,17
2019-03-23T04:30:02.529Z,19
2019-03-23T04:31:02.751Z,19
2019-03-23T04:32:01.804Z,17
2019-03-23T04:33:02.095Z,15
2019-03-23T04:34:02.205Z,14
2019-03-23T04:35:02.490Z,15
2019-03-23T04:36:01.664Z,15
2019-03-23T04:37:01.892Z,21
2019-03-23T04:38:02.039Z,16
2019-03-23T04:39:02.226Z,16
2019-03-23T04:40:02.587Z,15
2019-03-23T04:41:01.853Z,18
2019-03-23T04:42:02.035Z,17
2019-03-23T04:43:02.221Z,15
2019-03-23T04:44:02.099Z,14
2019-03-23T04:45:02.341Z,15
2019-03-23T04:46:02.531Z,15
2019-03-23T04:47:01.740Z,17
2019-03-23T04:48:02.020Z,20
2019-03-23T04:49:02.197Z,20
2019-03-23T04:50:02.571Z,16
2019-03-23T04:51:01.674Z,16
2019-03-23T04:52:01.930Z,18
2019-03-23T04:53:02.247Z,17
2019-03-23T04:54:02.394Z,17
2019-03-23T04:55:01.661Z,17
2019-03-23T04:56:01.818Z,18
2019-03-23T04:57:02.100Z,17
2019-03-23T04:58:02.343Z,16
2019-03-23T04:59:02.521Z,20
2019-03-23T05:00:03.731Z,22
2019-03-23T05:01:04.718Z,17
2019-03-23T05:02:01.826Z,17
2019-03-23T05:03:01.932Z,16
2019-03-23T05:04:02.184Z,17
2019-03-23T05:05:02.400Z,16
2019-03-23T05:06:02.596Z,18
2019-03-23T05:07:01.826Z,18
2019-03-23T05:08:02.038Z,18
2019-03-23T05:09:02.184Z,17
2019-03-23T05:10:02.433Z,18
2019-03-23T05:11:01.617Z,15
2019-03-23T05:12:01.887Z,15
2019-03-23T05:13:02.040Z,15
2019-03-23T05:14:02.320Z,17
2019-03-23T05:15:02.545Z,18
2019-03-23T05:16:01.713Z,19
2019-03-23T05:17:01.989Z,19
2019-03-23T05:18:02.105Z,15
2019-03-23T05:19:02.374Z,15
2019-03-23T05:20:01.732Z,16
2019-03-23T05:21:01.919Z,18
2019-03-23T05:22:02.160Z,18
2019-03-23T05:23:02.337Z,15
2019-03-23T05:24:02.512Z,16
2019-03-23T05:25:01.867Z,17
2019-03-23T05:26:01.989Z,15
2019-03-23T05:27:02.193Z,15
2019-03-23T05:28:02.390Z,17
2019-03-23T05:29:01.710Z,16
2019-03-23T05:30:01.982Z,17
2019-03-23T05:31:02.151Z,18
2019-03-23T05:32:02.356Z,13
2019-03-23T05:33:01.629Z,16
2019-03-23T05:34:01.977Z,17
2019-03-23T05:35:02.275Z,14
2019-03-23T05:36:02.458Z,15
2019-03-23T05:37:01.694Z,14
2019-03-23T05:38:01.916Z,14
2019-03-23T05:39:02.132Z,16
2019-03-23T05:40:02.428Z,14
2019-03-23T05:41:02.674Z,19
2019-03-23T05:42:01.761Z,15
2019-03-23T05:43:01.948Z,18
2019-03-23T05:44:02.115Z,17
2019-03-23T05:45:02.393Z,18
2019-03-23T05:46:01.695Z,17
2019-03-23T05:47:01.878Z,18
2019-03-23T05:48:02.143Z,19
2019-03-23T05:49:02.327Z,17
2019-03-23T05:50:02.586Z,14
2019-03-23T05:51:01.946Z,16
2019-03-23T05:52:02.109Z,17
2019-03-23T05:53:02.273Z,15
2019-03-23T05:54:02.579Z,16
2019-03-23T05:55:01.829Z,16
2019-03-23T05:56:02.082Z,15
2019-03-23T05:57:02.260Z,14
2019-03-23T05:58:02.461Z,14
2019-03-23T05:59:01.739Z,14
2019-03-23T06:00:03.694Z,16
2019-03-23T06:01:02.460Z,17
2019-03-23T06:02:01.745Z,14
2019-03-23T06:03:01.947Z,15
2019-03-23T06:04:02.180Z,19
2019-03-23T06:05:02.435Z,16
2019-03-23T06:06:01.719Z,16
2019-03-23T06:07:01.910Z,16
2019-03-23T06:08:02.171Z,18
2019-03-23T06:09:02.364Z,14
2019-03-23T06:10:02.563Z,15
2019-03-23T06:11:01.843Z,18
2019-03-23T06:12:02.106Z,15
2019-03-23T06:13:02.392Z,14
2019-03-23T06:14:02.564Z,16
2019-03-23T06:15:01.804Z,16
2019-03-23T06:16:02.087Z,13
2019-03-23T06:17:02.299Z,13
2019-03-23T06:18:02.675Z,16
2019-03-23T06:19:01.846Z,18
2019-03-23T06:20:02.081Z,13
2019-03-23T06:21:02.357Z,18
2019-03-23T06:22:02.581Z,15
2019-03-23T06:23:01.941Z,14
2019-03-23T06:24:02.101Z,17
2019-03-23T06:25:02.387Z,14
2019-03-23T06:26:02.604Z,17
2019-03-23T06:27:01.848Z,16
2019-03-23T06:28:01.999Z,15
2019-03-23T06:29:02.267Z,13
2019-03-23T06:30:02.498Z,18
2019-03-23T06:31:01.750Z,13
2019-03-23T06:32:01.934Z,15
2019-03-23T06:33:02.131Z,19
2019-03-23T06:34:02.440Z,13
2019-03-23T06:35:01.686Z,15
2019-03-23T06:36:01.904Z,14
2019-03-23T06:37:02.247Z,15
2019-03-23T06:38:06.906Z,15
2019-03-23T06:39:06.225Z,14
2019-03-23T06:40:01.870Z,16
2019-03-23T06:41:01.941Z,15
2019-03-23T06:42:02.135Z,20
2019-03-23T06:43:02.342Z,13
2019-03-23T06:44:02.613Z,16
2019-03-23T06:45:02.019Z,15
2019-03-23T06:46:02.059Z,14
2019-03-23T06:47:02.280Z,15
2019-03-23T06:48:02.508Z,18
2019-03-23T06:49:01.644Z,14
2019-03-23T06:50:01.908Z,14
2019-03-23T06:51:03.692Z,17
2019-03-23T06:52:02.361Z,20
2019-03-23T06:53:02.606Z,16
2019-03-23T06:54:01.760Z,17
2019-03-23T06:55:02.134Z,13
2019-03-23T06:56:02.338Z,17
2019-03-23T06:57:02.651Z,16
2019-03-23T06:58:01.766Z,14
2019-03-23T06:59:01.958Z,13
2019-03-23T07:00:05.199Z,13
2019-03-23T07:01:02.114Z,13
2019-03-23T07:02:02.206Z,14
2019-03-23T07:03:02.445Z,15
2019-03-23T07:04:02.657Z,18
2019-03-23T07:05:01.772Z,15
2019-03-23T07:06:01.980Z,15
2019-03-23T07:07:02.151Z,14
2019-03-23T07:08:02.335Z,13
2019-03-23T07:09:01.968Z,14
2019-03-23T07:10:02.194Z,13
2019-03-23T07:11:02.451Z,15
2019-03-23T07:12:02.642Z,16
2019-03-23T07:13:01.860Z,16
2019-03-23T07:14:02.106Z,15
2019-03-23T07:15:02.355Z,15
2019-03-23T07:16:02.507Z,13
2019-03-23T07:17:02.544Z,15
2019-03-23T07:18:01.801Z,15
2019-03-23T07:19:02.016Z,17
2019-03-23T07:20:02.257Z,15
2019-03-23T07:21:02.486Z,16
2019-03-23T07:22:01.846Z,18
2019-03-23T07:23:01.952Z,13
2019-03-23T07:24:02.456Z,15
2019-03-23T07:25:01.761Z,15
2019-03-23T07:26:01.922Z,14
2019-03-23T07:27:02.159Z,14
2019-03-23T07:28:02.381Z,16
2019-03-23T07:29:02.602Z,13
2019-03-23T07:30:01.786Z,14
2019-03-23T07:31:01.718Z,15
2019-03-23T07:32:06.510Z,12
2019-03-23T07:33:02.177Z,13
2019-03-23T07:34:02.451Z,15
2019-03-23T07:35:02.611Z,18
2019-03-23T07:36:01.829Z,12
2019-03-23T07:37:01.987Z,12
2019-03-23T07:38:02.361Z,14
2019-03-23T07:39:02.534Z,15
2019-03-23T07:40:01.889Z,13
2019-03-23T07:41:02.362Z,16
2019-03-23T07:42:02.334Z,16
2019-03-23T07:43:02.435Z,12
2019-03-23T07:44:01.718Z,16
2019-03-23T07:45:01.977Z,12
2019-03-23T07:46:02.127Z,14
2019-03-23T07:47:02.351Z,15
2019-03-23T07:48:02.624Z,17
2019-03-23T07:49:01.899Z,13
2019-03-23T07:50:02.159Z,15
2019-03-23T07:51:02.345Z,14
2019-03-23T07:52:02.583Z,12
2019-03-23T07:53:01.796Z,14
2019-03-23T07:54:03.150Z,14
2019-03-23T07:55:02.318Z,17
2019-03-23T07:56:02.169Z,15
2019-03-23T07:57:02.499Z,17
2019-03-23T07:58:02.558Z,15
2019-03-23T07:59:01.795Z,14
2019-03-23T08:00:04.075Z,19
2019-03-23T08:01:01.801Z,27
2019-03-23T08:02:02.166Z,26
2019-03-23T08:03:02.430Z,32
2019-03-23T08:04:02.603Z,31
2019-03-23T08:05:01.781Z,29
2019-03-23T08:06:02.132Z,24
2019-03-23T08:07:02.296Z,22
2019-03-23T08:08:02.504Z,26
2019-03-23T08:09:01.677Z,24
2019-03-23T08:10:01.900Z,20
2019-03-23T08:11:02.235Z,16
2019-03-23T08:12:02.339Z,25
2019-03-23T08:13:02.668Z,22
2019-03-23T08:14:02.432Z,24
2019-03-23T08:15:02.598Z,17
2019-03-23T08:16:01.959Z,21
2019-03-23T08:17:02.118Z,23
2019-03-23T08:18:02.374Z,18
2019-03-23T08:19:02.614Z,19
2019-03-23T08:20:01.863Z,22
2019-03-23T08:21:02.097Z,23
2019-03-23T08:22:01.995Z,19
2019-03-23T08:23:02.235Z,19
2019-03-23T08:24:02.355Z,24
2019-03-23T08:25:02.706Z,26
2019-03-23T08:26:01.883Z,23
2019-03-23T08:27:02.092Z,20
2019-03-23T08:28:02.354Z,23
2019-03-23T08:29:03.602Z,23
2019-03-23T08:30:01.819Z,21
2019-03-23T08:31:01.988Z,19
2019-03-23T08:32:02.113Z,25
2019-03-23T08:33:02.294Z,21
2019-03-23T08:34:02.521Z,23
2019-03-23T08:35:01.826Z,20
2019-03-23T08:36:02.071Z,22
2019-03-23T08:37:02.437Z,19
2019-03-23T08:38:02.512Z,18
2019-03-23T08:39:01.661Z,19
2019-03-23T08:40:01.965Z,24
2019-03-23T08:41:02.187Z,21
2019-03-23T08:42:02.066Z,22
2019-03-23T08:43:02.208Z,18
2019-03-23T08:44:02.424Z,24
2019-03-23T08:45:02.629Z,22
2019-03-23T08:46:01.797Z,19
2019-03-23T08:47:01.999Z,23
2019-03-23T08:48:02.176Z,16
2019-03-23T08:49:02.440Z,21
2019-03-23T08:50:02.691Z,22
2019-03-23T08:51:01.870Z,19
2019-03-23T08:52:02.093Z,20
2019-03-23T08:53:01.902Z,18
2019-03-23T08:54:02.092Z,18
2019-03-23T08:55:02.413Z,18
2019-03-23T08:56:01.643Z,17
2019-03-23T08:57:01.839Z,21
2019-03-23T08:58:02.054Z,19
2019-03-23T08:59:02.218Z,18
2019-03-23T09:00:04.266Z,17
2019-03-23T09:01:02.087Z,17
2019-03-23T09:02:02.363Z,19
2019-03-23T09:03:04.159Z,15
2019-03-23T09:04:01.696Z,23
2019-03-23T09:05:02.072Z,20
2019-03-23T09:06:02.170Z,16
2019-03-23T09:07:02.375Z,16
2019-03-23T09:08:01.683Z,18
2019-03-23T09:09:01.983Z,21
2019-03-23T09:10:02.231Z,18
2019-03-23T09:11:02.473Z,17
2019-03-23T09:12:02.207Z,16
2019-03-23T09:13:02.462Z,17
2019-03-23T09:14:01.651Z,20
2019-03-23T09:15:01.904Z,16
2019-03-23T09:16:02.123Z,15
2019-03-23T09:17:02.292Z,16
2019-03-23T09:18:02.495Z,15
2019-03-23T09:19:01.752Z,15
2019-03-23T09:20:02.072Z,18
2019-03-23T09:21:02.325Z,14
2019-03-23T09:22:02.460Z,12
2019-03-23T09:23:02.550Z,15
2019-03-23T09:24:01.847Z,16
2019-03-23T09:25:02.080Z,14
2019-03-23T09:26:02.279Z,13
2019-03-23T09:27:02.394Z,15
2019-03-23T09:28:02.639Z,15
2019-03-23T09:29:02.328Z,16
2019-03-23T09:30:02.522Z,18
2019-03-23T09:31:01.751Z,12
2019-03-23T09:32:01.925Z,16
2019-03-23T09:33:02.187Z,16
2019-03-23T09:34:02.376Z,15
2019-03-23T09:35:01.825Z,12
2019-03-23T09:36:02.017Z,13
2019-03-23T09:37:02.232Z,13
2019-03-23T09:38:02.388Z,12
2019-03-23T09:39:01.589Z,14
2019-03-23T09:40:11.547Z,12
2019-03-23T09:41:01.940Z,12
2019-03-23T09:42:02.092Z,12
2019-03-23T09:43:02.336Z,12
2019-03-23T09:44:02.577Z,11
2019-03-23T09:45:01.793Z,11
2019-03-23T09:46:02.075Z,12
2019-03-23T09:47:02.208Z,11
2019-03-23T09:48:02.481Z,12
2019-03-23T09:49:01.802Z,13
2019-03-23T09:50:02.040Z,9
2019-03-23T09:51:02.331Z,10
2019-03-23T09:52:02.542Z,9
2019-03-23T09:53:01.674Z,11
2019-03-23T09:54:01.872Z,12
2019-03-23T09:55:02.111Z,9
2019-03-23T09:56:02.392Z,10
2019-03-23T09:57:02.733Z,7
2019-03-23T09:58:01.707Z,9
2019-03-23T09:59:01.904Z,7
2019-03-23T10:00:04.530Z,11
2019-03-23T10:01:02.377Z,10
2019-03-23T10:02:02.577Z,8
2019-03-23T10:03:01.730Z,11
2019-03-23T10:04:01.986Z,8
2019-03-23T10:05:02.230Z,8
2019-03-23T10:06:02.378Z,9
2019-03-23T10:07:02.154Z,8
2019-03-23T10:08:02.303Z,9
2019-03-23T10:09:02.516Z,8
2019-03-23T10:10:01.740Z,8
2019-03-23T10:11:01.997Z,8
2019-03-23T10:12:02.133Z,11
2019-03-23T10:13:02.322Z,9
2019-03-23T10:14:03.542Z,10
2019-03-23T10:15:01.799Z,9
2019-03-23T10:16:02.017Z,9
2019-03-23T10:17:02.152Z,9
2019-03-23T10:18:02.341Z,7
2019-03-23T10:19:02.509Z,8
2019-03-23T10:20:01.682Z,7
2019-03-23T10:21:01.898Z,8
2019-03-23T10:22:02.106Z,9
2019-03-23T10:23:02.268Z,7
2019-03-23T10:24:02.516Z,9
2019-03-23T10:25:01.910Z,9
2019-03-23T10:26:01.979Z,5
2019-03-23T10:27:02.165Z,9
2019-03-23T10:28:02.390Z,7
2019-03-23T10:29:02.521Z,6
2019-03-23T10:30:01.871Z,7
2019-03-23T10:31:02.011Z,8
2019-03-23T10:32:02.244Z,6
2019-03-23T10:33:02.389Z,7
2019-03-23T10:34:02.625Z,7
2019-03-23T10:35:01.866Z,9
2019-03-23T10:36:02.051Z,6
2019-03-23T10:37:02.307Z,7
2019-03-23T10:38:02.596Z,5
2019-03-23T10:39:02.176Z,6
2019-03-23T10:40:02.457Z,5
2019-03-23T10:41:01.684Z,7
2019-03-23T10:42:01.779Z,7
2019-03-23T10:43:02.109Z,6
2019-03-23T10:44:02.094Z,7
2019-03-23T10:45:02.360Z,7
2019-03-23T10:46:02.518Z,6
2019-03-23T10:47:01.647Z,7
2019-03-23T10:48:01.806Z,6
2019-03-23T10:49:01.683Z,6
2019-03-23T10:50:01.934Z,7
2019-03-23T10:51:02.113Z,4
2019-03-23T10:52:02.270Z,4
2019-03-23T10:53:02.474Z,6
2019-03-23T10:54:04.454Z,6
2019-03-23T10:55:01.741Z,6
2019-03-23T10:56:01.922Z,7
2019-03-23T10:57:02.079Z,5
2019-03-23T10:58:02.360Z,5
2019-03-23T10:59:02.654Z,5
2019-03-23T11:00:05.770Z,4
2019-03-23T11:01:02.559Z,5
2019-03-23T11:02:01.684Z,7
2019-03-23T11:03:01.945Z,4
2019-03-23T11:04:02.220Z,4
2019-03-23T11:05:02.404Z,5
2019-03-23T11:06:01.627Z,5
2019-03-23T11:07:01.870Z,5
2019-03-23T11:08:02.120Z,5
2019-03-23T11:09:02.490Z,5
2019-03-23T11:10:01.633Z,4
2019-03-23T11:11:01.930Z,6
2019-03-23T11:12:02.133Z,5
2019-03-23T11:13:02.321Z,4
2019-03-23T11:14:02.626Z,6
2019-03-23T11:15:01.921Z,2
2019-03-23T11:16:02.587Z,4
2019-03-23T11:17:01.739Z,7
2019-03-23T11:18:02.245Z,3
2019-03-23T11:19:02.537Z,4
2019-03-23T11:20:01.768Z,3
2019-03-23T11:21:02.167Z,4
2019-03-23T11:22:02.133Z,4
2019-03-23T11:23:02.344Z,4
2019-03-23T11:24:02.402Z,5
2019-03-23T11:25:02.614Z,5
2019-03-23T11:26:01.778Z,7
2019-03-23T11:27:02.037Z,6
2019-03-23T11:28:02.255Z,2
2019-03-23T11:29:02.572Z,4
2019-03-23T11:30:01.828Z,3
2019-03-23T11:31:02.036Z,2
2019-03-23T11:32:02.269Z,6
2019-03-23T11:33:02.561Z,5
2019-03-23T11:34:01.736Z,5
2019-03-23T11:35:02.120Z,4
2019-03-23T11:36:01.910Z,3
2019-03-23T11:37:02.167Z,4
2019-03-23T11:38:02.904Z,6
2019-03-23T11:39:02.585Z,3
2019-03-23T11:40:01.771Z,5
2019-03-23T11:41:01.980Z,4
2019-03-23T11:42:02.168Z,4
2019-03-23T11:43:02.401Z,4
2019-03-23T11:44:02.520Z,4
2019-03-23T11:45:01.766Z,3
2019-03-23T11:46:02.037Z,2
2019-03-23T11:47:02.121Z,3
2019-03-23T11:48:02.379Z,4
2019-03-23T11:49:02.529Z,3
2019-03-23T11:50:01.970Z,3
2019-03-23T11:51:02.408Z,4
2019-03-23T11:52:02.423Z,4
2019-03-23T11:53:01.686Z,4
2019-03-23T11:54:01.743Z,3
2019-03-23T11:55:02.083Z,1
2019-03-23T11:56:02.228Z,2
2019-03-23T11:57:02.461Z,3
2019-03-23T11:58:01.662Z,3
2019-03-23T11:59:01.798Z,4
2019-03-23T12:00:03.735Z,4
2019-03-23T12:01:02.593Z,5
2019-03-23T12:02:01.732Z,3
2019-03-23T12:03:02.015Z,4
2019-03-23T12:04:02.153Z,6
2019-03-23T12:05:02.385Z,3
2019-03-23T12:06:02.551Z,4
2019-03-23T12:07:01.808Z,5
2019-03-23T12:08:01.942Z,4
2019-03-23T12:09:02.142Z,5
2019-03-23T12:10:02.407Z,3
2019-03-23T12:11:03.567Z,4
2019-03-23T12:12:02.591Z,4
2019-03-23T12:13:01.730Z,4
2019-03-23T12:14:01.980Z,5
2019-03-23T12:15:01.926Z,6
2019-03-23T12:16:02.149Z,9
2019-03-23T12:17:02.430Z,10
2019-03-23T12:18:01.571Z,8
2019-03-23T12:19:01.756Z,9
2019-03-23T12:20:02.004Z,11
2019-03-23T12:21:02.166Z,9
2019-03-23T12:22:02.379Z,10
2019-03-23T12:23:02.487Z,14
2019-03-23T12:24:01.830Z,18
2019-03-23T12:25:02.078Z,17
2019-03-23T12:26:02.202Z,16
2019-03-23T12:27:02.492Z,15
2019-03-23T12:28:01.639Z,14
2019-03-23T12:29:01.827Z,16
2019-03-23T12:30:07.900Z,18
2019-03-23T12:31:02.282Z,19
2019-03-23T12:32:02.605Z,19
2019-03-23T12:33:01.767Z,21
2019-03-23T12:34:01.914Z,17
2019-03-23T12:35:02.081Z,22
2019-03-23T12:36:02.249Z,19
2019-03-23T12:37:02.182Z,20
2019-03-23T12:38:02.299Z,20
2019-03-23T12:39:02.542Z,16
2019-03-23T12:40:01.868Z,18
2019-03-23T12:41:23.404Z,18
2019-03-23T12:42:02.334Z,23
2019-03-23T12:43:02.488Z,17
2019-03-23T12:44:01.751Z,19
2019-03-23T12:45:01.940Z,19
2019-03-23T12:46:02.107Z,18
2019-03-23T12:47:02.442Z,13
2019-03-23T12:48:02.305Z,17
2019-03-23T12:49:02.583Z,15
2019-03-23T12:50:01.837Z,17
2019-03-23T12:51:01.591Z,17
2019-03-23T12:52:01.904Z,20
2019-03-23T12:53:02.078Z,15
2019-03-23T12:54:02.225Z,15
2019-03-23T12:55:02.490Z,15
2019-03-23T12:56:01.644Z,13
2019-03-23T12:57:01.991Z,17
2019-03-23T12:58:02.197Z,14
2019-03-23T12:59:02.373Z,19
2019-03-23T13:00:03.336Z,13
2019-03-23T13:01:02.202Z,16
2019-03-23T13:02:02.366Z,14
2019-03-23T13:03:01.697Z,16
2019-03-23T13:04:02.135Z,13
2019-03-23T13:05:04.439Z,14
2019-03-23T13:06:02.502Z,12
2019-03-23T13:07:01.753Z,12
2019-03-23T13:08:02.054Z,12
2019-03-23T13:09:02.203Z,15
2019-03-23T13:10:02.477Z,14
2019-03-23T13:11:01.709Z,13
2019-03-23T13:12:01.877Z,11
2019-03-23T13:13:02.077Z,14
2019-03-23T13:14:02.248Z,12
2019-03-23T13:15:02.529Z,9
2019-03-23T13:16:01.739Z,12
2019-03-23T13:17:02.106Z,14
2019-03-23T13:18:03.515Z,13
2019-03-23T13:19:02.479Z,11
2019-03-23T13:20:01.814Z,10
2019-03-23T13:21:03.608Z,11
2019-03-23T13:22:02.183Z,8
2019-03-23T13:23:02.493Z,10
2019-03-23T13:24:02.593Z,10
2019-03-23T13:25:01.809Z,11
2019-03-23T13:26:01.799Z,11
2019-03-23T13:27:02.055Z,10
2019-03-23T13:28:02.157Z,8
2019-03-23T13:29:02.199Z,8
2019-03-23T13:30:02.605Z,12
2019-03-23T13:31:01.752Z,7
2019-03-23T13:32:02.014Z,12
2019-03-23T13:33:01.852Z,10
2019-03-23T13:34:01.972Z,9
2019-03-23T13:35:02.209Z,10
2019-03-23T13:36:02.399Z,9
2019-03-23T13:37:01.650Z,8
2019-03-23T13:38:01.798Z,9
2019-03-23T13:39:02.132Z,11
2019-03-23T13:40:02.350Z,8
2019-03-23T13:41:02.449Z,9
2019-03-23T13:42:02.532Z,9
2019-03-23T13:43:03.995Z,7
2019-03-23T13:44:02.542Z,8
2019-03-23T13:45:01.801Z,10
2019-03-23T13:46:02.085Z,9
2019-03-23T13:47:02.138Z,9
2019-03-23T13:48:02.456Z,11
2019-03-23T13:49:01.676Z,8
2019-03-23T13:50:02.040Z,8
2019-03-23T13:51:02.219Z,8
2019-03-23T13:52:02.516Z,7
2019-03-23T13:53:02.445Z,9
2019-03-23T13:54:02.598Z,7
2019-03-23T13:55:01.798Z,7
2019-03-23T13:56:02.018Z,7
2019-03-23T13:57:02.232Z,6
2019-03-23T13:58:02.455Z,8
2019-03-23T13:59:02.568Z,7
2019-03-23T14:00:04.053Z,6
2019-03-23T14:01:01.775Z,4
2019-03-23T14:02:02.038Z,7
2019-03-23T14:03:02.321Z,8
2019-03-23T14:04:02.459Z,6
2019-03-23T14:05:01.732Z,5
2019-03-23T14:06:01.896Z,7
2019-03-23T14:07:02.057Z,6
2019-03-23T14:08:02.285Z,6
2019-03-23T14:09:02.440Z,7
2019-03-23T14:10:01.716Z,8
2019-03-23T14:11:01.874Z,7
2019-03-23T14:12:01.990Z,4
2019-03-23T14:13:02.281Z,7
2019-03-23T14:14:02.474Z,8
2019-03-23T14:15:01.737Z,8
2019-03-23T14:16:01.951Z,7
2019-03-23T14:17:02.061Z,5
2019-03-23T14:18:02.342Z,8
2019-03-23T14:19:02.540Z,6
2019-03-23T14:20:01.767Z,6
2019-03-23T14:21:01.990Z,9
2019-03-23T14:22:02.138Z,7